Terminal Aerodrome Forecast
Issued by NWS

Home | Current Version | Previous Version | Text Only | Print | Product List | Glossary On
Versions: 1 2 3 4 5 6 7 8 9 10 11 12 13 14 15 16 17 18 19 20
000
FTUS41 KBTV 152300
TAFSLK
TAF
KSLK 152321Z 1600/1624 VRB02KT P6SM BKN040 OVC120
     FM160300 VRB02KT P6SM -SHRA BKN040 OVC120
      TEMPO 1606/1608 5SM -RA BR OVC035
     FM160800 VRB02KT 6SM -SHRA BR BKN020
      TEMPO 1608/1612 3SM -RA BR
     FM161200 25003KT P6SM BKN020
     FM161800 26007KT P6SM SCT035=

USA.gov is the U.S. government's official web portal to all federal, state and local government web resources and services.